createdAt,value
2023-03-16T00:00:13.687Z,93.22
2023-03-16T00:02:41.811Z,92.45
2023-03-16T00:05:09.905Z,91.96
2023-03-16T00:07:36.412Z,92.43
2023-03-16T00:10:03.647Z,92.37
2023-03-16T00:12:34.538Z,92.24
2023-03-16T00:15:01.897Z,93.25
2023-03-16T00:17:28.798Z,93.53
2023-03-16T00:19:57.104Z,93.75
2023-03-16T00:22:24.323Z,93.52
2023-03-16T00:24:50.824Z,91.97
2023-03-16T00:27:17.339Z,93.12
2023-03-16T00:29:47.311Z,93.64
2023-03-16T00:32:20.431Z,93.17
2023-03-16T00:34:47.523Z,94.65
2023-03-16T00:37:16.655Z,93.86
2023-03-16T00:39:43.606Z,93.42
2023-03-16T00:42:12.181Z,92.90
2023-03-16T00:44:39.043Z,93.39
2023-03-16T00:47:06.481Z,93.20
2023-03-16T00:49:34.735Z,93.27
2023-03-16T00:52:05.563Z,92.43
2023-03-16T00:54:34.984Z,94.06
2023-03-16T00:57:02.036Z,93.08
2023-03-16T00:59:29.109Z,93.05
2023-03-16T01:01:55.706Z,93.04
2023-03-16T01:04:22.521Z,93.21
2023-03-16T01:06:49.580Z,94.72
2023-03-16T01:09:16.029Z,95.39
2023-03-16T01:11:45.383Z,94.33
2023-03-16T01:14:11.929Z,93.14
2023-03-16T01:16:38.533Z,93.65
2023-03-16T01:19:04.983Z,93.70
2023-03-16T01:21:33.658Z,94.71
2023-03-16T01:24:00.499Z,95.08
2023-03-16T01:26:28.019Z,94.37
2023-03-16T01:28:54.908Z,95.58
2023-03-16T01:31:21.591Z,95.71
2023-03-16T01:33:48.118Z,95.85
2023-03-16T01:36:17.704Z,94.13
2023-03-16T01:38:44.778Z,95.04
2023-03-16T01:41:11.810Z,94.98
2023-03-16T01:43:39.746Z,94.06
2023-03-16T01:46:06.234Z,94.63
2023-03-16T01:48:54.548Z,94.65
2023-03-16T01:51:29.608Z,95.48
2023-03-16T01:53:58.874Z,95.60
2023-03-16T01:56:29.982Z,95.58
2023-03-16T01:58:58.726Z,95.52
2023-03-16T02:01:27.039Z,95.67
2023-03-16T02:03:59.331Z,95.72
2023-03-16T02:06:26.281Z,95.57
2023-03-16T02:08:55.356Z,95.89
2023-03-16T02:11:22.582Z,95.18
2023-03-16T02:13:49.909Z,95.90
2023-03-16T02:16:19.555Z,95.60
2023-03-16T02:18:50.952Z,95.76
2023-03-16T02:21:54.811Z,95.55
2023-03-16T02:24:21.752Z,95.32
2023-03-16T02:27:08.233Z,96.05
2023-03-16T02:29:52.829Z,96.89
2023-03-16T02:32:20.132Z,97.42
2023-03-16T02:34:46.607Z,96.80
2023-03-16T02:37:13.227Z,97.03
2023-03-16T02:39:39.675Z,96.72
2023-03-16T02:42:06.245Z,97.20
2023-03-16T02:44:35.458Z,96.79
2023-03-16T02:47:07.831Z,97.23
2023-03-16T02:49:37.024Z,98.11
2023-03-16T02:52:07.464Z,97.34
2023-03-16T02:54:34.056Z,98.43
2023-03-16T02:57:01.028Z,97.88
2023-03-16T02:59:27.501Z,97.52
2023-03-16T03:01:55.071Z,97.15
2023-03-16T03:04:23.486Z,97.73
2023-03-16T03:06:51.388Z,98.13
2023-03-16T03:09:18.500Z,97.76
2023-03-16T03:11:46.708Z,97.81
2023-03-16T03:14:16.831Z,98.09
2023-03-16T03:16:46.651Z,97.89
2023-03-16T03:19:13.748Z,98.19
2023-03-16T03:21:40.805Z,97.87
2023-03-16T03:24:08.061Z,97.72
2023-03-16T03:26:34.871Z,98.35
2023-03-16T03:29:01.346Z,97.79
2023-03-16T03:31:27.813Z,97.61
2023-03-16T03:33:54.259Z,98.10
2023-03-16T03:36:22.200Z,98.03
2023-03-16T03:38:49.622Z,99.15
2023-03-16T03:41:16.116Z,99.03
2023-03-16T03:43:42.538Z,97.83
2023-03-16T03:46:09.065Z,98.82
2023-03-16T03:48:35.588Z,98.67
2023-03-16T03:51:02.427Z,98.25
2023-03-16T03:53:28.845Z,99.24
2023-03-16T03:55:55.285Z,99.44
2023-03-16T03:58:21.711Z,99.01
2023-03-16T04:00:48.180Z,99.35
2023-03-16T04:03:14.889Z,99.33
2023-03-16T04:05:41.764Z,98.72
2023-03-16T04:08:08.209Z,100.00
2023-03-16T04:10:34.672Z,99.60
2023-03-16T04:13:01.182Z,99.55
2023-03-16T04:15:27.693Z,99.08
2023-03-16T04:17:54.182Z,99.05
2023-03-16T04:20:20.861Z,99.70
2023-03-16T04:22:49.012Z,99.24
2023-03-16T04:25:17.121Z,98.45
2023-03-16T04:27:43.907Z,98.83
2023-03-16T04:30:12.842Z,98.96
2023-03-16T04:32:40.057Z,100.00
2023-03-16T04:35:06.796Z,99.67
2023-03-16T04:37:34.478Z,98.54
2023-03-16T04:40:01.051Z,99.06
2023-03-16T04:42:27.480Z,99.41
2023-03-16T04:44:53.933Z,99.89
2023-03-16T04:47:20.487Z,99.85
2023-03-16T04:49:46.954Z,100.00
2023-03-16T04:52:13.430Z,99.72
2023-03-16T04:54:39.906Z,99.59
2023-03-16T04:57:06.382Z,99.76
2023-03-16T04:59:32.861Z,100.00
2023-03-16T05:01:59.315Z,100.00
2023-03-16T05:04:25.952Z,100.00
2023-03-16T05:06:52.356Z,99.86
2023-03-16T05:09:20.678Z,100.00
2023-03-16T05:11:47.137Z,100.00
2023-03-16T05:14:13.611Z,100.00
2023-03-16T05:16:40.085Z,100.00
2023-03-16T05:19:06.530Z,100.00
2023-03-16T05:21:34.257Z,100.00
2023-03-16T05:24:00.769Z,100.00
2023-03-16T05:26:27.216Z,100.00
2023-03-16T05:28:53.640Z,100.00
2023-03-16T05:31:20.220Z,100.00
2023-03-16T05:33:46.703Z,100.00
2023-03-16T05:36:13.654Z,100.00
2023-03-16T05:38:40.272Z,100.00
2023-03-16T05:41:06.692Z,100.00
2023-03-16T05:43:34.338Z,100.00
2023-03-16T05:46:00.861Z,99.47
2023-03-16T05:48:27.437Z,100.00
2023-03-16T05:50:53.992Z,100.00
2023-03-16T05:53:20.610Z,100.00
2023-03-16T05:55:52.533Z,100.00
2023-03-16T05:58:18.939Z,100.00
2023-03-16T06:00:45.372Z,100.00
2023-03-16T06:03:12.991Z,100.00
2023-03-16T06:05:39.580Z,100.00
2023-03-16T06:08:06.107Z,100.00
2023-03-16T06:10:32.530Z,100.00
2023-03-16T06:12:59.960Z,100.00
2023-03-16T06:15:26.746Z,100.00
2023-03-16T06:17:53.201Z,100.00
2023-03-16T06:20:19.724Z,100.00
2023-03-16T06:22:46.540Z,100.00
2023-03-16T06:25:14.585Z,100.00
2023-03-16T06:27:41.534Z,100.00
2023-03-16T06:30:11.164Z,100.00
2023-03-16T06:32:38.044Z,100.00
2023-03-16T06:35:05.358Z,100.00
2023-03-16T06:37:33.911Z,100.00
2023-03-16T06:40:00.369Z,100.00
2023-03-16T06:42:26.974Z,100.00
2023-03-16T06:44:53.671Z,100.00
2023-03-16T06:47:20.146Z,100.00
2023-03-16T06:49:46.979Z,100.00
2023-03-16T06:52:14.332Z,100.00
2023-03-16T06:54:41.286Z,100.00
2023-03-16T06:57:08.290Z,100.00
2023-03-16T06:59:35.043Z,98.92
2023-03-16T07:02:01.884Z,99.08
2023-03-16T07:04:28.480Z,99.03
2023-03-16T07:06:54.998Z,98.37
2023-03-16T07:09:22.010Z,98.09
2023-03-16T07:11:48.451Z,97.09
2023-03-16T07:14:15.030Z,96.66
2023-03-16T07:16:41.637Z,94.81
2023-03-16T07:19:08.123Z,94.92
2023-03-16T07:21:39.877Z,95.82
2023-03-16T07:24:08.564Z,95.42
2023-03-16T07:26:35.065Z,94.65
2023-03-16T07:29:01.558Z,95.11
2023-03-16T07:31:28.767Z,94.79
2023-03-16T07:33:55.279Z,94.07
2023-03-16T07:36:21.792Z,95.15
2023-03-16T07:38:48.285Z,94.79
2023-03-16T07:41:14.801Z,92.59
2023-03-16T07:43:41.324Z,92.13
2023-03-16T07:46:07.860Z,92.22
2023-03-16T07:48:34.367Z,92.09
2023-03-16T07:51:00.837Z,92.48
2023-03-16T07:53:27.278Z,91.20
2023-03-16T07:55:53.728Z,91.09
2023-03-16T07:58:20.219Z,89.14
2023-03-16T08:00:46.668Z,89.61
2023-03-16T08:03:13.817Z,90.44
2023-03-16T08:05:40.428Z,88.68
2023-03-16T08:08:09.598Z,87.66
2023-03-16T08:10:36.063Z,87.37
2023-03-16T08:13:04.879Z,88.36
2023-03-16T08:15:33.833Z,86.84
2023-03-16T08:18:02.375Z,83.95
2023-03-16T08:20:29.727Z,84.86
2023-03-16T08:22:56.296Z,83.51
2023-03-16T08:25:23.319Z,84.35
2023-03-16T08:27:50.223Z,84.84
2023-03-16T08:30:17.166Z,85.06
2023-03-16T08:32:43.693Z,85.59
2023-03-16T08:35:16.741Z,83.63
2023-03-16T08:37:43.649Z,81.48
2023-03-16T08:40:13.727Z,82.22
2023-03-16T08:42:41.317Z,82.89
2023-03-16T08:45:12.334Z,80.92
2023-03-16T08:47:40.425Z,81.36
2023-03-16T08:50:08.921Z,80.10
2023-03-16T08:52:36.445Z,81.83
2023-03-16T08:55:05.635Z,81.22
2023-03-16T08:57:33.848Z,79.60
2023-03-16T09:00:01.245Z,81.10
2023-03-16T09:02:27.732Z,78.32
2023-03-16T09:04:54.751Z,78.23
2023-03-16T09:07:21.920Z,79.55
2023-03-16T09:09:48.422Z,78.71
2023-03-16T09:12:14.887Z,75.98
2023-03-16T09:14:41.323Z,75.64
2023-03-16T09:17:07.934Z,75.99
2023-03-16T09:19:50.041Z,75.97
2023-03-16T09:22:19.522Z,77.17
2023-03-16T09:24:46.157Z,78.89
2023-03-16T09:27:12.781Z,75.69
2023-03-16T09:29:39.296Z,74.80
2023-03-16T09:32:06.583Z,75.59
2023-03-16T09:34:33.423Z,75.10
2023-03-16T09:37:00.492Z,73.86
2023-03-16T09:39:27.456Z,71.21
2023-03-16T09:42:10.034Z,71.04
2023-03-16T09:44:53.631Z,72.96
2023-03-16T09:47:28.598Z,73.03
2023-03-16T09:49:57.487Z,71.30
2023-03-16T09:52:35.412Z,71.87
2023-03-16T09:55:39.579Z,71.34
2023-03-16T09:58:29.189Z,73.11
2023-03-16T10:01:23.673Z,71.60
2023-03-16T10:04:33.119Z,71.63
2023-03-16T10:07:48.469Z,70.53
2023-03-16T10:13:15.816Z,69.89
2023-03-16T10:15:42.811Z,68.41
2023-03-16T10:18:21.120Z,67.97
2023-03-16T10:20:48.245Z,68.98
2023-03-16T10:23:21.352Z,68.24
2023-03-16T10:25:49.142Z,67.87
2023-03-16T10:28:21.524Z,66.08
2023-03-16T10:30:50.143Z,65.56
2023-03-16T10:33:26.620Z,66.25
2023-03-16T10:36:11.366Z,68.42
2023-03-16T10:38:40.726Z,67.44
2023-03-16T10:41:20.334Z,66.03
2023-03-16T10:43:58.409Z,64.91
2023-03-16T10:46:27.443Z,64.48
2023-03-16T10:48:59.742Z,62.95
2023-03-16T10:51:31.355Z,61.70
2023-03-16T10:54:31.962Z,60.15
2023-03-16T10:56:59.018Z,61.28
2023-03-16T10:59:34.512Z,60.79
2023-03-16T11:02:23.606Z,62.82
2023-03-16T11:04:50.819Z,60.48
2023-03-16T11:07:20.147Z,57.56
2023-03-16T11:09:50.332Z,58.51
2023-03-16T11:12:27.517Z,58.46
2023-03-16T11:14:54.672Z,58.51
2023-03-16T11:17:37.058Z,58.61
2023-03-16T11:20:14.213Z,58.85
2023-03-16T11:22:41.498Z,60.82
2023-03-16T11:25:30.509Z,56.67
2023-03-16T11:28:08.780Z,59.54
2023-03-16T11:30:41.985Z,57.08
2023-03-16T11:33:09.894Z,56.49
2023-03-16T11:35:38.507Z,57.76
2023-03-16T11:38:19.137Z,57.29
2023-03-16T11:40:56.100Z,57.37
2023-03-16T11:43:41.635Z,55.45
2023-03-16T11:46:16.806Z,54.36
2023-03-16T11:49:01.901Z,53.09
2023-03-16T11:51:33.717Z,54.67
2023-03-16T11:54:06.609Z,54.91
2023-03-16T11:56:49.569Z,51.97
2023-03-16T11:59:33.424Z,54.62
2023-03-16T12:02:09.174Z,50.07
2023-03-16T12:04:38.657Z,50.82
2023-03-16T12:07:30.460Z,52.23
2023-03-16T12:10:11.386Z,52.45
2023-03-16T12:13:07.628Z,51.85
2023-03-16T12:15:45.075Z,50.31
2023-03-16T12:18:17.175Z,48.97
2023-03-16T12:20:45.730Z,53.49
2023-03-16T12:23:22.742Z,50.30
2023-03-16T12:25:50.466Z,50.15
2023-03-16T12:28:22.265Z,50.71
2023-03-16T12:31:17.880Z,49.76
2023-03-16T12:33:58.660Z,48.89
2023-03-16T12:36:38.858Z,48.19
2023-03-16T12:39:18.659Z,47.27
2023-03-16T12:42:20.663Z,45.83
2023-03-16T12:44:49.946Z,46.77
2023-03-16T12:47:28.307Z,45.90
2023-03-16T12:49:56.817Z,47.48
2023-03-16T12:52:23.263Z,49.54
2023-03-16T12:55:06.238Z,50.07
2023-03-16T12:57:32.899Z,49.18
2023-03-16T13:00:00.953Z,48.76
2023-03-16T13:02:32.593Z,48.73
2023-03-16T13:05:09.442Z,46.40
2023-03-16T13:07:37.679Z,45.85
2023-03-16T13:10:10.680Z,46.37
2023-03-16T13:12:38.830Z,47.45
2023-03-16T13:15:19.685Z,47.51
2023-03-16T13:17:48.410Z,48.50
2023-03-16T13:20:32.017Z,46.41
2023-03-16T13:23:18.432Z,48.82
2023-03-16T13:26:00.266Z,47.00
2023-03-16T13:28:32.781Z,49.27
2023-03-16T13:31:00.545Z,48.03
2023-03-16T13:33:28.791Z,46.70
2023-03-16T13:35:57.413Z,47.16
2023-03-16T13:38:28.717Z,45.21
2023-03-16T13:41:04.402Z,43.80
2023-03-16T13:43:33.095Z,44.76
2023-03-16T13:45:59.714Z,43.89
2023-03-16T13:48:26.920Z,46.06
2023-03-16T13:50:57.591Z,43.61
2023-03-16T13:53:28.989Z,45.68
2023-03-16T13:55:56.239Z,45.66
2023-03-16T13:58:26.514Z,42.66
2023-03-16T14:00:57.651Z,43.00
2023-03-16T14:03:35.964Z,42.35
2023-03-16T14:06:03.644Z,43.72
2023-03-16T14:08:30.535Z,44.37
2023-03-16T14:11:00.610Z,42.94
2023-03-16T14:13:27.668Z,43.51
2023-03-16T14:16:12.879Z,42.90
2023-03-16T14:18:46.072Z,45.77
2023-03-16T14:21:24.268Z,45.04
2023-03-16T14:23:59.068Z,42.38
2023-03-16T14:26:26.189Z,43.36
2023-03-16T14:29:06.314Z,42.20
2023-03-16T14:31:38.157Z,42.73
2023-03-16T14:34:08.856Z,43.47
2023-03-16T14:36:38.456Z,45.07
2023-03-16T14:39:20.832Z,44.37
2023-03-16T14:41:51.578Z,45.14
2023-03-16T14:44:21.827Z,46.14
2023-03-16T14:46:49.040Z,45.47
2023-03-16T14:49:27.904Z,44.89
2023-03-16T14:51:59.152Z,44.72
2023-03-16T14:54:26.529Z,44.90
2023-03-16T14:56:55.483Z,43.76
2023-03-16T14:59:22.142Z,44.15
2023-03-16T15:01:51.286Z,43.45
2023-03-16T15:04:23.632Z,42.55
2023-03-16T15:06:50.123Z,41.19
2023-03-16T15:09:39.294Z,42.41
2023-03-16T15:12:17.961Z,44.44
2023-03-16T15:15:03.116Z,44.41
2023-03-16T15:17:29.620Z,42.56
2023-03-16T15:19:56.282Z,40.96
2023-03-16T15:22:33.594Z,41.59
2023-03-16T15:25:18.134Z,42.25
2023-03-16T15:27:44.740Z,41.85
2023-03-16T15:30:20.666Z,43.46
2023-03-16T15:32:47.593Z,42.98
2023-03-16T15:35:14.099Z,42.34
2023-03-16T15:37:40.646Z,42.11
2023-03-16T15:40:21.955Z,43.04
2023-03-16T15:42:48.882Z,43.04
2023-03-16T15:45:17.873Z,42.05
2023-03-16T15:47:45.034Z,41.73
2023-03-16T15:50:13.541Z,40.88
2023-03-16T15:52:42.000Z,42.58
2023-03-16T15:55:20.044Z,42.14
2023-03-16T15:57:48.028Z,43.15
2023-03-16T16:00:24.824Z,43.15
2023-03-16T16:02:51.559Z,43.97
2023-03-16T16:05:17.972Z,43.63
2023-03-16T16:07:44.428Z,44.72
2023-03-16T16:10:14.381Z,44.48
2023-03-16T16:12:40.908Z,44.55
2023-03-16T16:15:22.692Z,45.54
2023-03-16T16:18:09.985Z,43.49
2023-03-16T16:20:37.679Z,43.89
2023-03-16T16:23:08.086Z,45.50
2023-03-16T16:25:40.310Z,45.43
2023-03-16T16:28:24.027Z,44.88
2023-03-16T16:30:50.962Z,44.41
2023-03-16T16:33:35.842Z,44.78
2023-03-16T16:36:04.643Z,44.62
2023-03-16T16:38:31.641Z,44.97
2023-03-16T16:41:00.750Z,44.89
2023-03-16T16:43:30.278Z,45.52
2023-03-16T16:45:56.866Z,45.15
2023-03-16T16:48:32.962Z,46.87
2023-03-16T16:51:00.601Z,45.94
2023-03-16T16:53:27.269Z,45.55
2023-03-16T16:55:55.258Z,44.74
2023-03-16T16:58:24.240Z,46.72
2023-03-16T17:00:58.962Z,45.17
2023-03-16T17:03:29.737Z,45.35
2023-03-16T17:05:57.971Z,45.82
2023-03-16T17:08:25.399Z,46.38
2023-03-16T17:10:53.267Z,46.08
2023-03-16T17:13:29.774Z,47.50
2023-03-16T17:15:56.354Z,47.16
2023-03-16T17:18:22.873Z,46.66
2023-03-16T17:20:50.769Z,48.10
2023-03-16T17:23:26.119Z,48.13
2023-03-16T17:25:54.068Z,48.24
2023-03-16T17:28:20.774Z,49.14
2023-03-16T17:30:48.803Z,47.70
2023-03-16T17:33:17.468Z,49.70
2023-03-16T17:35:45.027Z,49.12
2023-03-16T17:38:21.357Z,49.88
2023-03-16T17:40:49.170Z,50.06
2023-03-16T17:43:17.462Z,48.57
2023-03-16T17:45:47.383Z,47.87
2023-03-16T17:48:20.201Z,50.09
2023-03-16T17:50:47.605Z,50.02
2023-03-16T17:53:14.923Z,50.39
2023-03-16T17:55:41.687Z,50.37
2023-03-16T17:58:24.676Z,49.60
2023-03-16T18:00:52.757Z,50.27
2023-03-16T18:03:19.660Z,51.69
2023-03-16T18:05:46.309Z,52.00
2023-03-16T18:08:16.305Z,53.02
2023-03-16T18:10:44.555Z,53.37
2023-03-16T18:13:17.860Z,53.69
2023-03-16T18:15:46.802Z,53.56
2023-03-16T18:18:18.835Z,54.35
2023-03-16T18:20:46.075Z,55.53
2023-03-16T18:23:21.216Z,55.09
2023-03-16T18:25:50.004Z,54.73
2023-03-16T18:28:16.924Z,55.40
2023-03-16T18:30:46.125Z,56.63
2023-03-16T18:33:32.551Z,57.30
2023-03-16T18:36:15.628Z,56.92
2023-03-16T18:38:47.374Z,57.68
2023-03-16T18:41:19.854Z,59.25
2023-03-16T18:43:47.261Z,60.33
2023-03-16T18:46:46.297Z,59.82
2023-03-16T18:49:23.165Z,61.09
2023-03-16T18:51:51.432Z,60.65
2023-03-16T18:54:24.398Z,61.52
2023-03-16T18:56:51.373Z,61.89
2023-03-16T18:59:17.917Z,62.20
2023-03-16T19:01:45.395Z,61.84
2023-03-16T19:04:21.814Z,62.69
2023-03-16T19:06:49.200Z,64.29
2023-03-16T19:09:20.069Z,63.77
2023-03-16T19:11:47.498Z,65.03
2023-03-16T19:14:22.503Z,64.98
2023-03-16T19:16:49.048Z,65.74
2023-03-16T19:19:15.555Z,66.43
2023-03-16T19:21:42.739Z,67.25
2023-03-16T19:24:20.958Z,67.49
2023-03-16T19:26:47.533Z,68.17
2023-03-16T19:29:14.347Z,67.75
2023-03-16T19:31:41.738Z,68.46
2023-03-16T19:34:17.278Z,67.91
2023-03-16T19:36:44.050Z,69.27
2023-03-16T19:39:14.655Z,69.06
2023-03-16T19:41:41.473Z,69.76
2023-03-16T19:44:14.984Z,69.97
2023-03-16T19:46:41.660Z,70.01
2023-03-16T19:49:21.026Z,71.14
2023-03-16T19:51:48.475Z,69.45
2023-03-16T19:54:28.026Z,71.86
2023-03-16T19:56:56.208Z,71.27
2023-03-16T19:59:24.406Z,70.87
2023-03-16T20:01:50.917Z,71.03
2023-03-16T20:04:25.807Z,71.77
2023-03-16T20:06:53.658Z,72.36
2023-03-16T20:09:20.740Z,71.75
2023-03-16T20:11:48.270Z,72.60
2023-03-16T20:14:19.680Z,72.58
2023-03-16T20:16:48.022Z,72.27
2023-03-16T20:19:15.511Z,72.88
2023-03-16T20:21:42.754Z,73.94
2023-03-16T20:24:16.159Z,73.80
2023-03-16T20:26:43.839Z,73.46
2023-03-16T20:29:18.659Z,74.30
2023-03-16T20:31:45.507Z,75.09
2023-03-16T20:34:21.360Z,73.98
2023-03-16T20:36:47.921Z,75.13
2023-03-16T20:39:14.337Z,75.33
2023-03-16T20:41:41.302Z,76.13
2023-03-16T20:44:12.863Z,76.30
2023-03-16T20:46:41.560Z,77.46
2023-03-16T20:49:29.152Z,76.87
2023-03-16T20:51:56.478Z,76.75
2023-03-16T20:54:22.929Z,77.33
2023-03-16T20:56:49.915Z,76.62
2023-03-16T20:59:26.508Z,77.50
2023-03-16T21:01:55.532Z,77.87
2023-03-16T21:04:27.519Z,77.22
2023-03-16T21:06:55.721Z,77.02
2023-03-16T21:09:22.294Z,77.14
2023-03-16T21:11:49.186Z,77.84
2023-03-16T21:14:22.308Z,77.90
2023-03-16T21:16:49.763Z,78.27
2023-03-16T21:19:19.143Z,78.36
2023-03-16T21:21:46.486Z,78.53
2023-03-16T21:24:13.003Z,78.08
2023-03-16T21:26:39.980Z,78.98
2023-03-16T21:29:10.116Z,79.16
2023-03-16T21:31:36.734Z,78.55
2023-03-16T21:34:05.347Z,79.01
2023-03-16T21:36:31.786Z,79.11
2023-03-16T21:38:58.266Z,80.22
2023-03-16T21:41:27.903Z,79.83
2023-03-16T21:43:54.922Z,79.17
2023-03-16T21:46:23.672Z,80.27
2023-03-16T21:48:54.779Z,79.90
2023-03-16T21:51:31.214Z,79.33
2023-03-16T21:53:58.159Z,80.96
2023-03-16T21:56:26.486Z,79.50
2023-03-16T21:58:54.003Z,80.99
2023-03-16T22:01:26.688Z,81.40
2023-03-16T22:03:57.255Z,82.29
2023-03-16T22:06:25.055Z,81.21
2023-03-16T22:08:51.868Z,83.27
2023-03-16T22:11:24.114Z,81.76
2023-03-16T22:13:51.493Z,82.07
2023-03-16T22:16:20.301Z,81.61
2023-03-16T22:18:48.978Z,82.18
2023-03-16T22:21:35.448Z,82.36
2023-03-16T22:24:05.254Z,82.68
2023-03-16T22:26:31.950Z,82.68
2023-03-16T22:29:00.510Z,81.83
2023-03-16T22:31:34.380Z,82.50
2023-03-16T22:34:02.948Z,82.83
2023-03-16T22:36:30.969Z,84.50
2023-03-16T22:39:00.213Z,83.54
2023-03-16T22:41:28.995Z,83.42
2023-03-16T22:43:55.861Z,83.99
2023-03-16T22:46:26.329Z,84.68
2023-03-16T22:48:54.208Z,84.23
2023-03-16T22:51:33.076Z,83.82
2023-03-16T22:54:02.400Z,84.22
2023-03-16T22:56:29.490Z,84.40
2023-03-16T22:58:59.020Z,83.65
2023-03-16T23:01:39.863Z,84.54
2023-03-16T23:04:17.284Z,84.81
2023-03-16T23:06:43.873Z,87.02
2023-03-16T23:09:13.989Z,84.97
2023-03-16T23:11:43.470Z,84.94
2023-03-16T23:14:24.610Z,85.41
2023-03-16T23:16:54.478Z,86.33
2023-03-16T23:19:31.874Z,85.04
2023-03-16T23:22:04.811Z,85.19
2023-03-16T23:24:37.617Z,85.78
2023-03-16T23:27:05.489Z,84.96
2023-03-16T23:29:32.121Z,84.79
2023-03-16T23:31:58.652Z,84.31
2023-03-16T23:34:26.194Z,84.96
2023-03-16T23:36:52.991Z,86.22
2023-03-16T23:39:19.880Z,86.66
2023-03-16T23:41:48.510Z,86.56
2023-03-16T23:44:17.476Z,86.55
2023-03-16T23:46:44.599Z,85.69
2023-03-16T23:49:18.469Z,85.66
2023-03-16T23:51:45.247Z,86.57
2023-03-16T23:54:20.693Z,87.97
2023-03-16T23:56:47.651Z,87.55
2023-03-16T23:59:14.221Z,87.92
